createdAt,value
2022-10-07T00:00:40.958Z,101418.06
2022-10-07T00:04:46.553Z,101419.66
2022-10-07T00:09:14.911Z,101409.06
2022-10-07T00:13:16.915Z,101423.69
2022-10-07T00:17:18.942Z,101408.06
2022-10-07T00:21:21.043Z,101397.84
2022-10-07T00:25:27.162Z,101399.47
2022-10-07T00:29:41.843Z,101383.94
2022-10-07T00:33:53.071Z,101388.16
2022-10-07T00:38:03.214Z,101379.41
2022-10-07T00:42:05.270Z,101373.53
2022-10-07T00:46:35.109Z,101387.22
2022-10-07T00:50:39.934Z,101383.75
2022-10-07T00:54:47.760Z,101380.00
2022-10-07T00:58:49.960Z,101375.91
2022-10-07T01:07:18.336Z,101368.31
2022-10-07T01:11:44.429Z,101357.69
2022-10-07T01:16:14.123Z,101353.00
2022-10-07T01:20:22.551Z,101354.75
2022-10-07T01:24:47.766Z,101354.06
2022-10-07T01:29:23.819Z,101355.53
2022-10-07T01:33:31.650Z,101336.94
2022-10-07T01:38:05.634Z,101326.06
2022-10-07T01:43:05.832Z,101319.81
2022-10-07T01:47:33.699Z,101311.44
2022-10-07T01:51:38.051Z,101307.22
2022-10-07T01:56:18.059Z,101310.31
2022-10-07T02:00:20.060Z,101297.28
2022-10-07T02:05:05.585Z,101299.53
2022-10-07T02:09:58.536Z,101296.31
2022-10-07T02:14:23.246Z,101298.72
2022-10-07T02:18:31.515Z,101279.50
2022-10-07T02:22:39.095Z,101276.53
2022-10-07T02:26:41.031Z,101265.00
2022-10-07T02:30:43.742Z,101279.56
2022-10-07T02:34:47.765Z,101264.75
2022-10-07T02:38:55.669Z,101262.47
2022-10-07T02:43:04.460Z,101258.00
2022-10-07T02:47:21.229Z,101252.44
2022-10-07T02:51:25.543Z,101266.94
2022-10-07T02:55:27.597Z,101260.25
2022-10-07T02:59:43.610Z,101251.22
2022-10-07T03:04:18.834Z,101250.72
2022-10-07T03:08:35.553Z,101251.16
2022-10-07T03:12:37.528Z,101250.34
2022-10-07T03:16:39.451Z,101240.75
2022-10-07T03:20:41.364Z,101242.59
2022-10-07T03:24:43.283Z,101230.34
2022-10-07T03:28:45.961Z,101241.22
2022-10-07T03:32:49.553Z,101238.59
2022-10-07T03:36:51.492Z,101231.13
2022-10-07T03:40:53.426Z,101229.00
2022-10-07T03:44:55.326Z,101227.25
2022-10-07T03:48:58.465Z,101219.91
2022-10-07T03:57:49.920Z,101202.09
2022-10-07T04:01:52.153Z,101200.63
2022-10-07T04:05:59.744Z,101195.41
2022-10-07T04:10:01.863Z,101187.25
2022-10-07T04:14:03.862Z,101191.34
2022-10-07T04:18:09.191Z,101205.31
2022-10-07T04:22:13.598Z,101177.41
2022-10-07T04:26:15.802Z,101181.13
2022-10-07T04:30:20.978Z,101170.53
2022-10-07T04:34:23.006Z,101174.25
2022-10-07T04:38:28.255Z,101169.34
2022-10-07T04:42:52.202Z,101175.47
2022-10-07T04:47:06.362Z,101176.13
2022-10-07T04:51:08.896Z,101173.44
2022-10-07T04:55:14.541Z,101172.97
2022-10-07T04:59:24.109Z,101172.06
2022-10-07T05:07:49.338Z,101179.88
2022-10-07T05:12:26.169Z,101165.94
2022-10-07T05:16:28.139Z,101170.38
2022-10-07T05:20:39.692Z,101158.69
2022-10-07T05:24:50.125Z,101158.25
2022-10-07T05:28:55.234Z,101158.91
2022-10-07T05:33:10.718Z,101153.81
2022-10-07T05:37:36.796Z,101146.84
2022-10-07T05:42:03.876Z,101147.19
2022-10-07T05:53:28.373Z,101135.84
2022-10-07T05:58:51.112Z,101134.84
2022-10-07T06:03:51.439Z,101121.72
2022-10-07T06:16:45.383Z,101098.22
2022-10-07T06:20:34.378Z,101080.25
2022-10-07T06:31:24.845Z,101064.88
2022-10-07T06:46:59.117Z,101058.63
2022-10-07T07:08:02.998Z,101038.28
2022-10-07T07:12:05.034Z,101030.88
2022-10-07T07:16:09.575Z,101028.94
2022-10-07T07:20:13.428Z,101023.22
2022-10-07T07:24:15.462Z,101023.31
2022-10-07T07:28:17.428Z,101010.13
2022-10-07T07:32:21.978Z,101003.69
2022-10-07T07:36:25.075Z,101008.59
2022-10-07T07:40:27.245Z,101006.84
2022-10-07T07:44:34.752Z,101006.94
2022-10-07T07:48:38.268Z,100994.38
2022-10-07T07:52:40.286Z,101000.69
2022-10-07T07:57:23.822Z,100982.44
2022-10-07T08:02:24.108Z,100980.47
2022-10-07T08:07:25.460Z,100969.78
2022-10-07T08:11:22.280Z,100940.13
2022-10-07T08:15:51.808Z,100964.19
2022-10-07T08:20:06.040Z,100957.91
2022-10-07T08:28:26.510Z,100953.69
2022-10-07T08:32:31.120Z,100952.31
2022-10-07T08:36:33.190Z,100943.25
2022-10-07T08:40:35.820Z,100938.78
2022-10-07T08:45:09.937Z,100953.16
2022-10-07T08:49:29.558Z,100930.38
2022-10-07T08:53:47.783Z,100937.00
2022-10-07T08:58:07.570Z,100927.22
2022-10-07T09:03:26.858Z,100922.94
2022-10-07T09:08:40.414Z,100916.81
2022-10-07T09:18:06.638Z,100906.59
2022-10-07T09:22:51.769Z,100900.56
2022-10-07T09:28:02.221Z,100889.44
2022-10-07T09:33:12.876Z,100885.94
2022-10-07T09:43:27.707Z,100868.31
2022-10-07T09:47:36.804Z,100861.38
2022-10-07T09:51:40.155Z,100870.59
2022-10-07T09:55:43.363Z,100874.56
2022-10-07T09:59:48.606Z,100843.88
2022-10-07T10:05:59.257Z,100852.72
2022-10-07T10:27:47.235Z,100809.34
2022-10-07T10:38:00.966Z,100809.56
2022-10-07T10:42:17.673Z,100783.44
2022-10-07T10:47:00.525Z,100782.53
2022-10-07T10:51:34.217Z,100771.31
2022-10-07T10:55:55.415Z,100764.34
2022-10-07T11:00:13.347Z,100756.56
2022-10-07T11:04:26.939Z,100745.09
2022-10-07T11:08:50.023Z,100745.88
2022-10-07T11:13:17.939Z,100730.16
2022-10-07T11:17:30.919Z,100717.63
2022-10-07T11:22:08.382Z,100703.16
2022-10-07T11:26:37.583Z,100712.50
2022-10-07T11:30:53.506Z,100701.28
2022-10-07T11:35:24.395Z,100695.09
2022-10-07T11:39:26.668Z,100676.06
2022-10-07T11:43:49.995Z,100680.81
2022-10-07T11:47:59.563Z,100659.50
2022-10-07T11:52:24.604Z,100654.69
2022-10-07T11:56:27.231Z,100649.91
2022-10-07T12:00:40.529Z,100640.56
2022-10-07T12:04:42.535Z,100628.91
2022-10-07T12:08:44.862Z,100627.09
2022-10-07T12:13:07.621Z,100638.41
2022-10-07T12:17:27.031Z,100619.50
2022-10-07T12:21:29.319Z,100617.59
2022-10-07T12:25:32.606Z,100603.00
2022-10-07T12:30:04.363Z,100600.06
2022-10-07T12:34:06.210Z,100600.50
2022-10-07T12:38:11.090Z,100602.13
2022-10-07T12:42:13.227Z,100588.63
2022-10-07T12:46:18.905Z,100598.81
2022-10-07T12:50:32.094Z,100584.88
2022-10-07T13:00:28.442Z,100572.66
2022-10-07T13:04:55.532Z,100567.69
2022-10-07T13:09:28.689Z,100552.53
2022-10-07T13:14:01.992Z,100551.72
2022-10-07T13:18:44.975Z,100544.28
2022-10-07T13:22:50.820Z,100533.44
2022-10-07T13:26:54.916Z,100535.56
2022-10-07T13:31:04.512Z,100527.09
2022-10-07T13:35:43.087Z,100533.66
2022-10-07T13:39:47.838Z,100525.84
2022-10-07T13:43:54.625Z,100518.84
2022-10-07T13:47:59.368Z,100520.44
2022-10-07T13:52:04.232Z,100503.06
2022-10-07T13:56:13.659Z,100500.00
2022-10-07T14:00:16.492Z,100486.13
2022-10-07T14:04:25.285Z,100485.44
2022-10-07T14:08:31.541Z,100485.25
2022-10-07T14:12:45.451Z,100471.31
2022-10-07T14:16:49.563Z,100470.44
2022-10-07T14:20:56.226Z,100459.66
2022-10-07T14:25:01.702Z,100464.97
2022-10-07T14:29:28.329Z,100457.16
2022-10-07T14:34:13.081Z,100440.97
2022-10-07T14:38:27.803Z,100440.06
2022-10-07T14:42:36.254Z,100429.41
2022-10-07T15:04:56.428Z,100409.28
2022-10-07T15:20:17.776Z,100394.03
2022-10-07T15:24:19.817Z,100384.50
2022-10-07T15:28:21.865Z,100369.28
2022-10-07T15:32:24.054Z,100375.09
2022-10-07T15:36:28.680Z,100374.75
2022-10-07T15:40:31.430Z,100367.06
2022-10-07T15:44:36.539Z,100371.91
2022-10-07T15:48:40.260Z,100361.13
2022-10-07T15:52:42.180Z,100366.66
2022-10-07T15:56:45.245Z,100362.22
2022-10-07T16:06:16.865Z,100374.75
2022-10-07T16:10:18.974Z,100363.75
2022-10-07T16:14:31.853Z,100368.66
2022-10-07T16:19:27.983Z,100368.28
2022-10-07T16:29:51.592Z,100371.25
2022-10-07T16:34:03.642Z,100365.69
2022-10-07T16:38:14.438Z,100364.03
2022-10-07T16:42:42.204Z,100351.53
2022-10-07T16:46:59.203Z,100355.84
2022-10-07T17:36:49.681Z,100350.53
2022-10-07T17:41:19.419Z,100354.28
2022-10-07T17:45:24.928Z,100354.66
2022-10-07T17:49:34.743Z,100349.28
2022-10-07T17:53:37.638Z,100367.50
2022-10-07T17:57:42.123Z,100357.13
2022-10-07T18:02:11.999Z,100360.59
2022-10-07T18:06:40.298Z,100364.63
2022-10-07T18:11:00.393Z,100361.53
2022-10-07T18:20:42.416Z,100345.53
2022-10-07T18:26:02.620Z,100353.34
2022-10-07T19:04:16.114Z,100319.09
2022-10-07T19:08:22.620Z,100331.94
2022-10-07T19:13:53.259Z,100328.47
2022-10-07T19:18:05.757Z,100325.09
2022-10-07T19:22:08.064Z,100329.38
2022-10-07T19:26:38.199Z,100329.88
2022-10-07T19:30:46.288Z,100347.66
2022-10-07T19:35:20.442Z,100342.22
2022-10-07T19:40:03.877Z,100347.16
2022-10-07T19:44:33.429Z,100340.03
2022-10-07T19:48:43.380Z,100347.75
2022-10-07T19:53:03.448Z,100344.81
2022-10-07T19:57:06.855Z,100339.03
2022-10-07T20:01:10.262Z,100340.50
2022-10-07T20:05:12.372Z,100339.34
2022-10-07T20:09:19.058Z,100332.09
2022-10-07T20:13:23.477Z,100329.19
2022-10-07T20:17:49.806Z,100326.56
2022-10-07T20:22:00.016Z,100320.78
2022-10-07T20:26:32.135Z,100330.00
2022-10-07T20:30:35.204Z,100339.84
2022-10-07T20:34:39.313Z,100329.00
2022-10-07T20:39:00.032Z,100320.09
2022-10-07T20:43:03.515Z,100319.75
2022-10-07T20:47:09.394Z,100315.97
2022-10-07T20:51:12.856Z,100323.22
2022-10-07T20:55:14.836Z,100313.81
2022-10-07T20:59:16.860Z,100301.50
2022-10-07T21:03:25.341Z,100306.56
2022-10-07T21:07:29.436Z,100291.75
2022-10-07T21:11:31.341Z,100295.88
2022-10-07T21:15:37.662Z,100303.56
2022-10-07T21:19:40.099Z,100307.16
2022-10-07T21:23:42.212Z,100299.56
2022-10-07T21:27:44.139Z,100300.69
2022-10-07T21:31:48.112Z,100296.94
2022-10-07T21:35:50.572Z,100282.16
2022-10-07T21:39:52.387Z,100266.97
2022-10-07T21:43:55.703Z,100268.91
2022-10-07T21:47:59.102Z,100276.75
2022-10-07T21:52:01.000Z,100272.00
2022-10-07T21:56:08.282Z,100262.44
2022-10-07T22:00:12.408Z,100289.16
2022-10-07T22:04:17.624Z,100280.16
2022-10-07T22:08:35.812Z,100277.56
2022-10-07T22:12:37.756Z,100269.94
2022-10-07T22:16:39.864Z,100259.53
2022-10-07T22:20:44.613Z,100263.31
2022-10-07T22:24:46.507Z,100254.09
2022-10-07T22:28:48.456Z,100252.91
2022-10-07T22:33:02.799Z,100258.16
2022-10-07T22:37:05.184Z,100256.47
2022-10-07T22:41:26.613Z,100237.75
2022-10-07T22:45:28.559Z,100238.88
2022-10-07T22:49:30.599Z,100237.19
2022-10-07T22:53:33.411Z,100227.22
2022-10-07T22:57:38.304Z,100230.75
2022-10-07T23:01:40.270Z,100231.56
2022-10-07T23:05:42.178Z,100215.94
2022-10-07T23:09:44.185Z,100214.38
2022-10-07T23:13:46.171Z,100206.34
2022-10-07T23:17:48.067Z,100212.94
2022-10-07T23:21:49.975Z,100232.88
2022-10-07T23:25:52.175Z,100231.81
2022-10-07T23:29:54.050Z,100214.06
2022-10-07T23:33:56.509Z,100227.19
2022-10-07T23:38:00.437Z,100214.06
2022-10-07T23:42:03.042Z,100222.03
2022-10-07T23:46:07.646Z,100208.56
2022-10-07T23:50:10.100Z,100211.25
2022-10-07T23:54:12.174Z,100208.94
2022-10-07T23:58:16.991Z,100205.50
